createdAt,value
2024-01-24T00:02:37.745Z,101108.47
2024-01-24T00:12:39.651Z,101089.84
2024-01-24T00:22:41.481Z,101076.38
2024-01-24T00:32:43.270Z,101070.31
2024-01-24T00:42:45.611Z,101032.66
2024-01-24T00:52:53.082Z,101041.38
2024-01-24T01:02:54.911Z,101023.03
2024-01-24T01:12:56.808Z,100992.00
2024-01-24T01:22:58.674Z,100972.97
2024-01-24T01:33:00.546Z,100962.28
2024-01-24T01:43:02.397Z,100944.44
2024-01-24T01:53:04.832Z,100927.97
2024-01-24T02:03:07.847Z,100913.81
2024-01-24T02:13:09.760Z,100862.91
2024-01-24T02:23:13.509Z,100887.06
2024-01-24T02:33:15.490Z,100842.63
2024-01-24T02:43:17.296Z,100820.00
2024-01-24T02:53:19.345Z,100814.66
2024-01-24T03:03:21.186Z,100786.28
2024-01-24T03:13:23.172Z,100778.09
2024-01-24T03:23:25.869Z,100763.84
2024-01-24T03:33:27.846Z,100731.06
2024-01-24T03:43:29.704Z,100681.81
2024-01-24T03:53:33.092Z,100656.91
2024-01-24T04:03:34.960Z,100643.78
2024-01-24T04:13:36.815Z,100644.13
2024-01-24T04:23:38.759Z,100642.38
2024-01-24T04:33:40.778Z,100646.34
2024-01-24T04:43:42.830Z,100618.75
2024-01-24T04:53:44.744Z,100609.25
2024-01-24T05:03:46.524Z,100595.81
2024-01-24T05:13:49.404Z,100597.59
2024-01-24T05:23:52.747Z,100561.06
2024-01-24T05:33:56.876Z,100543.09
2024-01-24T05:43:58.520Z,100511.59
2024-01-24T05:54:00.158Z,100501.78
2024-01-24T06:04:02.290Z,100512.66
2024-01-24T06:14:04.334Z,100483.06
2024-01-24T06:24:08.919Z,100451.31
2024-01-24T06:34:10.706Z,100465.78
2024-01-24T06:44:12.534Z,100440.88
2024-01-24T06:54:14.313Z,100421.38
2024-01-24T07:04:16.029Z,100420.59
2024-01-24T07:14:17.941Z,100405.09
2024-01-24T07:24:19.800Z,100397.06
2024-01-24T07:34:21.742Z,100371.19
2024-01-24T07:44:23.609Z,100338.81
2024-01-24T07:54:25.555Z,100345.84
2024-01-24T08:04:27.750Z,100330.34
2024-01-24T08:14:29.719Z,100327.00
2024-01-24T08:24:31.595Z,100309.75
2024-01-24T08:34:35.524Z,100317.59
2024-01-24T08:44:37.620Z,100321.22
2024-01-24T08:54:39.575Z,100290.06
2024-01-24T09:04:41.770Z,100239.41
2024-01-24T09:14:48.697Z,100240.19
2024-01-24T09:24:51.419Z,100238.50
2024-01-24T09:34:53.863Z,100207.94
2024-01-24T09:44:59.237Z,100214.31
2024-01-24T09:55:06.123Z,100189.75
2024-01-24T10:05:14.149Z,100151.94
2024-01-24T10:15:15.962Z,100127.22
2024-01-24T10:25:17.924Z,100108.84
2024-01-24T10:35:20.034Z,100101.81
2024-01-24T10:45:27.227Z,100054.53
2024-01-24T10:55:32.563Z,100026.81
2024-01-24T11:05:34.699Z,100039.22
2024-01-24T11:15:36.839Z,100033.94
2024-01-24T11:25:38.920Z,99991.75
2024-01-24T11:35:46.513Z,99990.06
2024-01-24T11:45:48.292Z,99968.09
2024-01-24T11:56:05.858Z,99966.28
2024-01-24T12:06:08.024Z,99945.63
2024-01-24T12:16:10.319Z,99957.16
2024-01-24T12:26:19.109Z,99932.28
2024-01-24T12:36:20.900Z,99932.88
2024-01-24T12:46:22.805Z,99902.91
2024-01-24T12:56:24.596Z,99919.03
2024-01-24T13:06:28.461Z,99893.78
2024-01-24T13:16:32.360Z,99902.94
2024-01-24T13:26:34.617Z,99898.63
2024-01-24T13:36:36.670Z,99882.56
2024-01-24T13:46:38.774Z,99869.91
2024-01-24T13:56:40.681Z,99865.66
2024-01-24T14:06:43.594Z,99868.25
2024-01-24T14:16:45.521Z,99861.50
2024-01-24T14:26:49.063Z,99902.81
2024-01-24T14:36:55.698Z,99894.53
2024-01-24T14:47:05.767Z,99922.41
2024-01-24T14:57:07.716Z,99921.56
2024-01-24T15:07:09.553Z,99944.31
2024-01-24T15:17:11.325Z,99950.09
2024-01-24T15:27:13.044Z,99927.31
2024-01-24T15:37:16.047Z,99980.25
2024-01-24T15:47:17.823Z,99954.03
2024-01-24T15:57:19.768Z,100020.88
2024-01-24T16:07:21.924Z,100042.81
2024-01-24T16:17:23.727Z,100026.00
2024-01-24T16:27:25.516Z,100055.56
2024-01-24T16:37:27.601Z,100065.63
2024-01-24T16:47:29.771Z,100069.75
2024-01-24T16:57:31.573Z,100064.59
2024-01-24T17:07:33.592Z,100099.94
2024-01-24T17:17:35.225Z,100126.84
2024-01-24T17:27:37.494Z,100143.75
2024-01-24T17:37:39.660Z,100147.03
2024-01-24T17:47:43.211Z,100140.66
2024-01-24T17:57:45.484Z,100166.50
2024-01-24T18:07:47.691Z,100198.16
2024-01-24T18:17:49.374Z,100197.88
2024-01-24T18:27:51.956Z,100202.31
2024-01-24T18:37:53.806Z,100233.72
2024-01-24T18:47:55.896Z,100243.44
2024-01-24T18:57:58.048Z,100240.28
2024-01-24T19:08:00.051Z,100263.84
2024-01-24T19:18:10.383Z,100242.53
2024-01-24T19:28:15.644Z,100229.59
2024-01-24T19:38:17.880Z,100266.44
2024-01-24T19:48:19.882Z,100283.13
2024-01-24T19:58:22.095Z,100292.31
2024-01-24T20:08:23.836Z,100301.06
2024-01-24T20:18:25.695Z,100297.59
2024-01-24T20:28:27.616Z,100294.91
2024-01-24T20:38:29.437Z,100296.66
2024-01-24T20:48:31.152Z,100289.13
2024-01-24T20:58:34.432Z,100300.91
2024-01-24T21:08:36.678Z,100297.13
2024-01-24T21:18:39.821Z,100304.16
2024-01-24T21:28:41.747Z,100321.06
2024-01-24T21:38:43.508Z,100322.63
2024-01-24T21:48:45.545Z,100335.06
2024-01-24T21:58:47.636Z,100353.72
2024-01-24T22:08:49.527Z,100339.38
2024-01-24T22:18:51.387Z,100319.03
2024-01-24T22:28:53.063Z,100341.69
2024-01-24T22:38:54.979Z,100347.59
2024-01-24T22:48:58.001Z,100344.19
2024-01-24T22:58:59.874Z,100338.97
2024-01-24T23:09:01.603Z,100322.03
2024-01-24T23:19:03.573Z,100327.94
2024-01-24T23:29:05.454Z,100354.19
2024-01-24T23:39:08.213Z,100362.47
2024-01-24T23:49:10.102Z,100364.81
2024-01-24T23:59:11.931Z,100369.06
